sensor_id;sensor_type;location;lat;lon;timestamp;temperature;humidity
8220;DHT22;4151;51.110;7.020;2023-04-06T00:00:49;1.90;99.90
8220;DHT22;4151;51.110;7.020;2023-04-06T00:03:14;1.90;99.90
8220;DHT22;4151;51.110;7.020;2023-04-06T00:05:41;1.90;99.90
8220;DHT22;4151;51.110;7.020;2023-04-06T00:08:06;1.80;99.90
8220;DHT22;4151;51.110;7.020;2023-04-06T00:10:32;1.80;99.90
8220;DHT22;4151;51.110;7.020;2023-04-06T00:12:58;1.80;99.90
8220;DHT22;4151;51.110;7.020;2023-04-06T00:15:25;1.80;99.90
8220;DHT22;4151;51.110;7.020;2023-04-06T00:17:51;1.80;99.90
8220;DHT22;4151;51.110;7.020;2023-04-06T00:20:16;1.80;99.90
8220;DHT22;4151;51.110;7.020;2023-04-06T00:22:43;1.80;99.90
8220;DHT22;4151;51.110;7.020;2023-04-06T00:25:09;1.80;99.90
8220;DHT22;4151;51.110;7.020;2023-04-06T00:27:36;1.70;99.90
8220;DHT22;4151;51.110;7.020;2023-04-06T00:30:06;1.70;99.90
8220;DHT22;4151;51.110;7.020;2023-04-06T00:32:32;1.60;99.90
8220;DHT22;4151;51.110;7.020;2023-04-06T00:34:58;1.60;99.90
8220;DHT22;4151;51.110;7.020;2023-04-06T00:37:24;1.60;99.90
8220;DHT22;4151;51.110;7.020;2023-04-06T00:39:49;1.50;99.90
8220;DHT22;4151;51.110;7.020;2023-04-06T00:42:18;1.50;99.90
8220;DHT22;4151;51.110;7.020;2023-04-06T00:44:53;1.40;99.90
8220;DHT22;4151;51.110;7.020;2023-04-06T00:47:20;1.50;99.90
8220;DHT22;4151;51.110;7.020;2023-04-06T00:49:46;1.40;99.90
8220;DHT22;4151;51.110;7.020;2023-04-06T00:52:11;1.40;99.90
8220;DHT22;4151;51.110;7.020;2023-04-06T00:54:37;1.30;99.90
8220;DHT22;4151;51.110;7.020;2023-04-06T00:57:03;1.20;99.90
8220;DHT22;4151;51.110;7.020;2023-04-06T00:59:29;1.10;99.90
8220;DHT22;4151;51.110;7.020;2023-04-06T01:01:54;1.10;99.90
8220;DHT22;4151;51.110;7.020;2023-04-06T01:04:20;1.10;99.90
8220;DHT22;4151;51.110;7.020;2023-04-06T01:06:48;1.00;99.90
8220;DHT22;4151;51.110;7.020;2023-04-06T01:09:14;1.00;99.90
8220;DHT22;4151;51.110;7.020;2023-04-06T01:11:40;1.00;99.90
8220;DHT22;4151;51.110;7.020;2023-04-06T01:14:05;1.00;99.90
8220;DHT22;4151;51.110;7.020;2023-04-06T01:16:31;1.00;99.90
8220;DHT22;4151;51.110;7.020;2023-04-06T01:18:57;1.00;99.90
8220;DHT22;4151;51.110;7.020;2023-04-06T01:21:23;1.00;99.90
8220;DHT22;4151;51.110;7.020;2023-04-06T01:23:48;0.90;99.90
8220;DHT22;4151;51.110;7.020;2023-04-06T01:26:14;0.90;99.90
8220;DHT22;4151;51.110;7.020;2023-04-06T01:28:39;1.00;99.90
8220;DHT22;4151;51.110;7.020;2023-04-06T01:31:07;1.00;99.90
8220;DHT22;4151;51.110;7.020;2023-04-06T01:33:33;0.80;99.90
8220;DHT22;4151;51.110;7.020;2023-04-06T01:35:59;0.70;99.90
8220;DHT22;4151;51.110;7.020;2023-04-06T01:38:25;0.70;99.90
8220;DHT22;4151;51.110;7.020;2023-04-06T01:40:52;0.70;99.90
8220;DHT22;4151;51.110;7.020;2023-04-06T01:43:17;0.70;99.90
8220;DHT22;4151;51.110;7.020;2023-04-06T01:45:43;0.70;99.90
8220;DHT22;4151;51.110;7.020;2023-04-06T01:48:08;0.70;99.90
8220;DHT22;4151;51.110;7.020;2023-04-06T01:50:34;0.70;99.90
8220;DHT22;4151;51.110;7.020;2023-04-06T01:53:00;0.70;99.90
8220;DHT22;4151;51.110;7.020;2023-04-06T01:55:26;0.60;99.90
8220;DHT22;4151;51.110;7.020;2023-04-06T01:57:51;0.60;99.90
8220;DHT22;4151;51.110;7.020;2023-04-06T02:00:17;0.60;99.90
8220;DHT22;4151;51.110;7.020;2023-04-06T02:02:43;0.60;99.90
8220;DHT22;4151;51.110;7.020;2023-04-06T02:05:08;0.70;99.90
8220;DHT22;4151;51.110;7.020;2023-04-06T02:07:34;0.70;99.90
8220;DHT22;4151;51.110;7.020;2023-04-06T02:10:00;0.60;99.90
8220;DHT22;4151;51.110;7.020;2023-04-06T02:12:25;0.60;99.90
8220;DHT22;4151;51.110;7.020;2023-04-06T02:14:51;0.60;99.90
8220;DHT22;4151;51.110;7.020;2023-04-06T02:17:17;0.60;99.90
8220;DHT22;4151;51.110;7.020;2023-04-06T02:19:42;0.60;99.90
8220;DHT22;4151;51.110;7.020;2023-04-06T02:22:09;0.60;99.90
8220;DHT22;4151;51.110;7.020;2023-04-06T02:24:34;0.60;99.90
8220;DHT22;4151;51.110;7.020;2023-04-06T02:27:00;0.50;99.90
8220;DHT22;4151;51.110;7.020;2023-04-06T02:29:26;0.50;99.90
8220;DHT22;4151;51.110;7.020;2023-04-06T02:31:52;0.50;99.90
8220;DHT22;4151;51.110;7.020;2023-04-06T02:34:17;0.50;99.90
8220;DHT22;4151;51.110;7.020;2023-04-06T02:36:44;0.50;99.90
8220;DHT22;4151;51.110;7.020;2023-04-06T02:39:10;0.40;99.90
8220;DHT22;4151;51.110;7.020;2023-04-06T02:41:36;0.40;99.90
8220;DHT22;4151;51.110;7.020;2023-04-06T02:44:02;0.40;99.90
8220;DHT22;4151;51.110;7.020;2023-04-06T02:46:28;0.40;99.90
8220;DHT22;4151;51.110;7.020;2023-04-06T02:48:54;0.40;99.90
8220;DHT22;4151;51.110;7.020;2023-04-06T02:51:20;0.30;99.90
8220;DHT22;4151;51.110;7.020;2023-04-06T02:53:46;0.20;99.90
8220;DHT22;4151;51.110;7.020;2023-04-06T02:56:11;0.20;99.90
8220;DHT22;4151;51.110;7.020;2023-04-06T02:58:37;0.20;99.90
8220;DHT22;4151;51.110;7.020;2023-04-06T03:01:03;0.20;99.90
8220;DHT22;4151;51.110;7.020;2023-04-06T03:03:29;0.20;99.90
8220;DHT22;4151;51.110;7.020;2023-04-06T03:05:55;0.10;99.90
8220;DHT22;4151;51.110;7.020;2023-04-06T03:08:23;0.10;99.90
8220;DHT22;4151;51.110;7.020;2023-04-06T03:10:49;0.10;99.90
8220;DHT22;4151;51.110;7.020;2023-04-06T03:13:15;0.20;99.90
8220;DHT22;4151;51.110;7.020;2023-04-06T03:15:41;0.10;99.90
8220;DHT22;4151;51.110;7.020;2023-04-06T03:18:06;0.10;99.90
8220;DHT22;4151;51.110;7.020;2023-04-06T03:20:32;0.10;99.90
8220;DHT22;4151;51.110;7.020;2023-04-06T03:22:58;0.10;99.90
8220;DHT22;4151;51.110;7.020;2023-04-06T03:25:23;0.10;99.90
8220;DHT22;4151;51.110;7.020;2023-04-06T03:27:49;0.00;99.90
8220;DHT22;4151;51.110;7.020;2023-04-06T03:30:15;0.00;99.90
8220;DHT22;4151;51.110;7.020;2023-04-06T03:32:43;0.00;99.90
8220;DHT22;4151;51.110;7.020;2023-04-06T03:35:09;0.00;99.90
8220;DHT22;4151;51.110;7.020;2023-04-06T03:37:34;0.00;99.90
8220;DHT22;4151;51.110;7.020;2023-04-06T03:40:00;0.00;99.90
8220;DHT22;4151;51.110;7.020;2023-04-06T03:42:26;0.00;99.90
8220;DHT22;4151;51.110;7.020;2023-04-06T03:44:52;0.00;99.90
8220;DHT22;4151;51.110;7.020;2023-04-06T03:47:17;0.00;99.90
8220;DHT22;4151;51.110;7.020;2023-04-06T03:49:43;0.00;99.90
8220;DHT22;4151;51.110;7.020;2023-04-06T03:52:09;0.00;99.90
8220;DHT22;4151;51.110;7.020;2023-04-06T03:54:35;0.00;99.90
8220;DHT22;4151;51.110;7.020;2023-04-06T03:57:00;0.00;99.90
8220;DHT22;4151;51.110;7.020;2023-04-06T03:59:26;0.00;99.90
8220;DHT22;4151;51.110;7.020;2023-04-06T04:01:52;0.00;99.90
8220;DHT22;4151;51.110;7.020;2023-04-06T04:04:17;0.10;99.90
8220;DHT22;4151;51.110;7.020;2023-04-06T04:06:43;0.00;99.90
8220;DHT22;4151;51.110;7.020;2023-04-06T04:09:08;0.00;99.90
8220;DHT22;4151;51.110;7.020;2023-04-06T04:11:34;-0.10;99.90
8220;DHT22;4151;51.110;7.020;2023-04-06T04:14:00;0.00;99.90
8220;DHT22;4151;51.110;7.020;2023-04-06T04:16:25;-0.10;99.90
8220;DHT22;4151;51.110;7.020;2023-04-06T04:18:51;-0.10;99.90
8220;DHT22;4151;51.110;7.020;2023-04-06T04:21:16;-0.20;99.90
8220;DHT22;4151;51.110;7.020;2023-04-06T04:23:42;-0.30;99.90
8220;DHT22;4151;51.110;7.020;2023-04-06T04:26:08;-0.30;99.90
8220;DHT22;4151;51.110;7.020;2023-04-06T04:28:33;-0.30;99.90
8220;DHT22;4151;51.110;7.020;2023-04-06T04:30:59;-0.30;99.90
8220;DHT22;4151;51.110;7.020;2023-04-06T04:33:25;-0.40;99.90
8220;DHT22;4151;51.110;7.020;2023-04-06T04:35:50;-0.40;99.90
8220;DHT22;4151;51.110;7.020;2023-04-06T04:38:16;-0.40;99.90
8220;DHT22;4151;51.110;7.020;2023-04-06T04:40:42;-0.50;99.90
8220;DHT22;4151;51.110;7.020;2023-04-06T04:43:07;-0.50;99.90
8220;DHT22;4151;51.110;7.020;2023-04-06T04:45:33;-0.40;99.90
8220;DHT22;4151;51.110;7.020;2023-04-06T04:47:58;-0.40;99.90
8220;DHT22;4151;51.110;7.020;2023-04-06T04:50:25;-0.50;99.90
8220;DHT22;4151;51.110;7.020;2023-04-06T04:52:50;-0.50;99.90
8220;DHT22;4151;51.110;7.020;2023-04-06T04:55:16;-0.60;99.90
8220;DHT22;4151;51.110;7.020;2023-04-06T04:57:42;-0.60;99.90
8220;DHT22;4151;51.110;7.020;2023-04-06T05:00:08;-0.60;99.90
8220;DHT22;4151;51.110;7.020;2023-04-06T05:02:34;-0.50;99.90
8220;DHT22;4151;51.110;7.020;2023-04-06T05:05:00;-0.50;99.90
8220;DHT22;4151;51.110;7.020;2023-04-06T05:07:25;-0.50;99.90
8220;DHT22;4151;51.110;7.020;2023-04-06T05:09:51;-0.40;99.90
8220;DHT22;4151;51.110;7.020;2023-04-06T05:12:19;-0.50;99.90
8220;DHT22;4151;51.110;7.020;2023-04-06T05:14:45;-0.50;99.90
8220;DHT22;4151;51.110;7.020;2023-04-06T05:17:10;-0.50;99.90
8220;DHT22;4151;51.110;7.020;2023-04-06T05:19:36;-0.50;99.90
8220;DHT22;4151;51.110;7.020;2023-04-06T05:22:02;-0.50;99.90
8220;DHT22;4151;51.110;7.020;2023-04-06T05:24:27;-0.40;99.90
8220;DHT22;4151;51.110;7.020;2023-04-06T05:26:53;-0.30;99.90
8220;DHT22;4151;51.110;7.020;2023-04-06T05:29:19;-0.10;99.90
8220;DHT22;4151;51.110;7.020;2023-04-06T05:31:45;0.10;99.90
8220;DHT22;4151;51.110;7.020;2023-04-06T05:34:11;0.30;99.90
8220;DHT22;4151;51.110;7.020;2023-04-06T05:36:38;0.40;99.90
8220;DHT22;4151;51.110;7.020;2023-04-06T05:39:03;0.40;99.90
8220;DHT22;4151;51.110;7.020;2023-04-06T05:41:29;0.50;99.90
8220;DHT22;4151;51.110;7.020;2023-04-06T05:43:55;0.60;99.90
8220;DHT22;4151;51.110;7.020;2023-04-06T05:46:20;0.60;99.90
8220;DHT22;4151;51.110;7.020;2023-04-06T05:48:46;0.70;99.90
8220;DHT22;4151;51.110;7.020;2023-04-06T05:51:12;0.80;99.90
8220;DHT22;4151;51.110;7.020;2023-04-06T05:53:38;1.00;99.90
8220;DHT22;4151;51.110;7.020;2023-04-06T05:56:04;1.10;99.90
8220;DHT22;4151;51.110;7.020;2023-04-06T05:58:29;1.20;99.90
8220;DHT22;4151;51.110;7.020;2023-04-06T06:00:59;1.50;99.90
8220;DHT22;4151;51.110;7.020;2023-04-06T06:03:24;1.70;99.90
8220;DHT22;4151;51.110;7.020;2023-04-06T06:05:50;1.90;99.90
8220;DHT22;4151;51.110;7.020;2023-04-06T06:08:16;2.10;99.90
8220;DHT22;4151;51.110;7.020;2023-04-06T06:10:41;2.20;99.90
8220;DHT22;4151;51.110;7.020;2023-04-06T06:13:07;2.30;99.90
8220;DHT22;4151;51.110;7.020;2023-04-06T06:15:33;2.50;99.90
8220;DHT22;4151;51.110;7.020;2023-04-06T06:17:58;2.80;99.90
8220;DHT22;4151;51.110;7.020;2023-04-06T06:20:24;3.00;99.90
8220;DHT22;4151;51.110;7.020;2023-04-06T06:22:50;3.20;99.90
8220;DHT22;4151;51.110;7.020;2023-04-06T06:25:15;3.40;99.90
8220;DHT22;4151;51.110;7.020;2023-04-06T06:27:41;3.50;99.90
8220;DHT22;4151;51.110;7.020;2023-04-06T06:30:07;3.70;99.90
8220;DHT22;4151;51.110;7.020;2023-04-06T06:32:33;3.80;99.90
8220;DHT22;4151;51.110;7.020;2023-04-06T06:34:59;4.00;99.90
8220;DHT22;4151;51.110;7.020;2023-04-06T06:37:24;4.10;99.90
8220;DHT22;4151;51.110;7.020;2023-04-06T06:39:50;4.20;99.90
8220;DHT22;4151;51.110;7.020;2023-04-06T06:42:16;4.40;99.90
8220;DHT22;4151;51.110;7.020;2023-04-06T06:44:41;4.50;99.90
8220;DHT22;4151;51.110;7.020;2023-04-06T06:47:07;4.60;99.90
8220;DHT22;4151;51.110;7.020;2023-04-06T06:49:32;4.70;99.90
8220;DHT22;4151;51.110;7.020;2023-04-06T06:51:58;4.80;99.90
8220;DHT22;4151;51.110;7.020;2023-04-06T06:54:23;4.80;99.90
8220;DHT22;4151;51.110;7.020;2023-04-06T06:56:49;5.00;99.90
8220;DHT22;4151;51.110;7.020;2023-04-06T06:59:15;5.10;99.90
8220;DHT22;4151;51.110;7.020;2023-04-06T07:01:41;5.10;99.90
8220;DHT22;4151;51.110;7.020;2023-04-06T07:04:07;5.30;99.90
8220;DHT22;4151;51.110;7.020;2023-04-06T07:06:35;5.40;99.90
8220;DHT22;4151;51.110;7.020;2023-04-06T07:09:01;5.50;99.90
8220;DHT22;4151;51.110;7.020;2023-04-06T07:11:28;5.70;99.90
8220;DHT22;4151;51.110;7.020;2023-04-06T07:13:54;5.70;99.90
8220;DHT22;4151;51.110;7.020;2023-04-06T07:16:20;5.80;99.90
8220;DHT22;4151;51.110;7.020;2023-04-06T07:18:45;5.90;99.90
8220;DHT22;4151;51.110;7.020;2023-04-06T07:21:11;6.10;99.90
8220;DHT22;4151;51.110;7.020;2023-04-06T07:23:37;6.20;99.90
8220;DHT22;4151;51.110;7.020;2023-04-06T07:26:03;6.30;99.90
8220;DHT22;4151;51.110;7.020;2023-04-06T07:28:28;6.40;99.90
8220;DHT22;4151;51.110;7.020;2023-04-06T07:30:54;6.70;99.90
8220;DHT22;4151;51.110;7.020;2023-04-06T07:33:20;6.90;99.90
8220;DHT22;4151;51.110;7.020;2023-04-06T07:35:46;7.00;99.90
8220;DHT22;4151;51.110;7.020;2023-04-06T07:38:11;7.20;99.90
8220;DHT22;4151;51.110;7.020;2023-04-06T07:40:37;7.20;99.90
8220;DHT22;4151;51.110;7.020;2023-04-06T07:43:03;7.40;99.90
8220;DHT22;4151;51.110;7.020;2023-04-06T07:45:29;7.70;99.90
8220;DHT22;4151;51.110;7.020;2023-04-06T07:47:55;8.00;99.90
8220;DHT22;4151;51.110;7.020;2023-04-06T07:50:20;8.30;99.90
8220;DHT22;4151;51.110;7.020;2023-04-06T07:52:46;8.50;99.90
8220;DHT22;4151;51.110;7.020;2023-04-06T07:55:12;8.50;99.90
8220;DHT22;4151;51.110;7.020;2023-04-06T07:57:37;8.50;99.90
8220;DHT22;4151;51.110;7.020;2023-04-06T08:00:03;8.40;99.90
8220;DHT22;4151;51.110;7.020;2023-04-06T08:02:31;8.40;99.90
8220;DHT22;4151;51.110;7.020;2023-04-06T08:04:56;8.60;99.90
8220;DHT22;4151;51.110;7.020;2023-04-06T08:07:22;8.90;99.90
8220;DHT22;4151;51.110;7.020;2023-04-06T08:09:48;9.10;99.90
8220;DHT22;4151;51.110;7.020;2023-04-06T08:12:14;9.10;99.90
8220;DHT22;4151;51.110;7.020;2023-04-06T08:14:40;9.30;99.90
8220;DHT22;4151;51.110;7.020;2023-04-06T08:17:06;9.40;99.90
8220;DHT22;4151;51.110;7.020;2023-04-06T08:19:31;9.70;99.90
8220;DHT22;4151;51.110;7.020;2023-04-06T08:21:57;9.70;99.90
8220;DHT22;4151;51.110;7.020;2023-04-06T08:24:23;9.70;99.90
8220;DHT22;4151;51.110;7.020;2023-04-06T08:26:48;9.60;99.90
8220;DHT22;4151;51.110;7.020;2023-04-06T08:29:14;9.70;99.90
8220;DHT22;4151;51.110;7.020;2023-04-06T08:31:39;9.80;99.90
8220;DHT22;4151;51.110;7.020;2023-04-06T08:34:05;9.80;99.90
8220;DHT22;4151;51.110;7.020;2023-04-06T08:36:32;10.30;99.90
8220;DHT22;4151;51.110;7.020;2023-04-06T08:38:59;11.00;99.90
8220;DHT22;4151;51.110;7.020;2023-04-06T08:41:25;11.40;99.90
8220;DHT22;4151;51.110;7.020;2023-04-06T08:43:57;11.10;99.90
8220;DHT22;4151;51.110;7.020;2023-04-06T08:46:23;10.80;99.90
8220;DHT22;4151;51.110;7.020;2023-04-06T08:49:00;10.70;99.90
8220;DHT22;4151;51.110;7.020;2023-04-06T08:51:28;10.60;99.90
8220;DHT22;4151;51.110;7.020;2023-04-06T08:53:55;10.60;99.90
8220;DHT22;4151;51.110;7.020;2023-04-06T08:56:22;11.00;99.90
8220;DHT22;4151;51.110;7.020;2023-04-06T08:58:48;11.30;99.90
8220;DHT22;4151;51.110;7.020;2023-04-06T09:01:18;11.50;99.90
8220;DHT22;4151;51.110;7.020;2023-04-06T09:03:46;11.90;99.90
8220;DHT22;4151;51.110;7.020;2023-04-06T09:06:13;11.90;99.90
8220;DHT22;4151;51.110;7.020;2023-04-06T09:08:40;11.70;99.90
8220;DHT22;4151;51.110;7.020;2023-04-06T09:11:06;11.50;99.90
8220;DHT22;4151;51.110;7.020;2023-04-06T09:13:51;11.20;99.90
8220;DHT22;4151;51.110;7.020;2023-04-06T09:16:17;11.10;99.90
8220;DHT22;4151;51.110;7.020;2023-04-06T09:18:44;11.30;99.90
8220;DHT22;4151;51.110;7.020;2023-04-06T09:21:10;11.90;99.90
8220;DHT22;4151;51.110;7.020;2023-04-06T09:23:36;12.20;99.90
8220;DHT22;4151;51.110;7.020;2023-04-06T09:26:16;12.80;99.90
8220;DHT22;4151;51.110;7.020;2023-04-06T09:28:49;13.20;99.90
8220;DHT22;4151;51.110;7.020;2023-04-06T09:31:20;13.30;99.90
8220;DHT22;4151;51.110;7.020;2023-04-06T09:33:46;13.40;99.90
8220;DHT22;4151;51.110;7.020;2023-04-06T09:36:12;13.50;99.90
8220;DHT22;4151;51.110;7.020;2023-04-06T09:38:51;13.90;99.90
8220;DHT22;4151;51.110;7.020;2023-04-06T09:41:25;13.90;99.90
8220;DHT22;4151;51.110;7.020;2023-04-06T09:43:52;14.00;99.90
8220;DHT22;4151;51.110;7.020;2023-04-06T09:46:20;13.70;99.90
8220;DHT22;4151;51.110;7.020;2023-04-06T09:48:47;13.90;99.90
8220;DHT22;4151;51.110;7.020;2023-04-06T09:51:14;14.20;99.90
8220;DHT22;4151;51.110;7.020;2023-04-06T09:53:41;14.60;99.90
8220;DHT22;4151;51.110;7.020;2023-04-06T09:56:12;14.50;99.90
8220;DHT22;4151;51.110;7.020;2023-04-06T09:58:42;14.60;99.90
8220;DHT22;4151;51.110;7.020;2023-04-06T10:01:15;15.30;99.90
8220;DHT22;4151;51.110;7.020;2023-04-06T10:03:56;15.30;99.90
8220;DHT22;4151;51.110;7.020;2023-04-06T10:06:32;15.10;99.90
8220;DHT22;4151;51.110;7.020;2023-04-06T10:08:59;15.00;99.90
8220;DHT22;4151;51.110;7.020;2023-04-06T10:11:27;15.40;99.90
8220;DHT22;4151;51.110;7.020;2023-04-06T10:13:54;15.70;99.90
8220;DHT22;4151;51.110;7.020;2023-04-06T10:16:21;15.90;99.90
8220;DHT22;4151;51.110;7.020;2023-04-06T10:18:52;16.10;99.90
8220;DHT22;4151;51.110;7.020;2023-04-06T10:21:21;16.20;99.90
8220;DHT22;4151;51.110;7.020;2023-04-06T10:23:53;16.80;98.90
8220;DHT22;4151;51.110;7.020;2023-04-06T10:26:21;16.90;99.90
8220;DHT22;4151;51.110;7.020;2023-04-06T10:28:48;16.70;99.60
8220;DHT22;4151;51.110;7.020;2023-04-06T10:31:14;16.90;98.80
8220;DHT22;4151;51.110;7.020;2023-04-06T10:33:40;17.40;97.40
8220;DHT22;4151;51.110;7.020;2023-04-06T10:36:11;17.30;96.80
8220;DHT22;4151;51.110;7.020;2023-04-06T10:38:41;16.90;96.70
8220;DHT22;4151;51.110;7.020;2023-04-06T10:41:09;16.60;95.10
8220;DHT22;4151;51.110;7.020;2023-04-06T10:43:36;16.20;96.80
8220;DHT22;4151;51.110;7.020;2023-04-06T10:46:02;16.10;98.50
8220;DHT22;4151;51.110;7.020;2023-04-06T10:48:44;15.90;98.60
8220;DHT22;4151;51.110;7.020;2023-04-06T10:51:13;15.20;97.50
8220;DHT22;4151;51.110;7.020;2023-04-06T10:53:41;14.90;98.10
8220;DHT22;4151;51.110;7.020;2023-04-06T10:56:12;15.10;97.80
8220;DHT22;4151;51.110;7.020;2023-04-06T10:58:38;15.40;97.50
8220;DHT22;4151;51.110;7.020;2023-04-06T11:01:04;15.30;97.80
8220;DHT22;4151;51.110;7.020;2023-04-06T11:03:29;15.20;98.20
8220;DHT22;4151;51.110;7.020;2023-04-06T11:05:55;15.40;98.60
8220;DHT22;4151;51.110;7.020;2023-04-06T11:08:31;15.60;98.70
8220;DHT22;4151;51.110;7.020;2023-04-06T11:11:05;15.80;98.10
8220;DHT22;4151;51.110;7.020;2023-04-06T11:13:45;16.00;97.10
8220;DHT22;4151;51.110;7.020;2023-04-06T11:16:28;16.20;95.80
8220;DHT22;4151;51.110;7.020;2023-04-06T11:18:55;16.10;96.10
8220;DHT22;4151;51.110;7.020;2023-04-06T11:21:41;16.50;95.40
8220;DHT22;4151;51.110;7.020;2023-04-06T11:24:17;16.40;95.40
8220;DHT22;4151;51.110;7.020;2023-04-06T11:26:45;16.10;95.90
8220;DHT22;4151;51.110;7.020;2023-04-06T11:29:19;16.30;95.80
8220;DHT22;4151;51.110;7.020;2023-04-06T11:31:47;16.20;95.80
8220;DHT22;4151;51.110;7.020;2023-04-06T11:34:17;16.30;96.50
8220;DHT22;4151;51.110;7.020;2023-04-06T11:36:45;16.20;96.10
8220;DHT22;4151;51.110;7.020;2023-04-06T11:39:12;16.10;96.10
8220;DHT22;4151;51.110;7.020;2023-04-06T11:41:38;16.40;97.10
8220;DHT22;4151;51.110;7.020;2023-04-06T11:44:05;16.20;97.60
8220;DHT22;4151;51.110;7.020;2023-04-06T11:46:31;16.20;98.00
8220;DHT22;4151;51.110;7.020;2023-04-06T11:49:01;15.20;97.30
8220;DHT22;4151;51.110;7.020;2023-04-06T11:51:27;14.60;99.10
8220;DHT22;4151;51.110;7.020;2023-04-06T11:53:53;14.10;99.90
8220;DHT22;4151;51.110;7.020;2023-04-06T11:56:24;14.00;99.90
8220;DHT22;4151;51.110;7.020;2023-04-06T11:58:50;13.90;99.90
8220;DHT22;4151;51.110;7.020;2023-04-06T12:01:16;13.80;99.90
8220;DHT22;4151;51.110;7.020;2023-04-06T12:03:41;13.70;99.90
8220;DHT22;4151;51.110;7.020;2023-04-06T12:06:07;13.50;99.90
8220;DHT22;4151;51.110;7.020;2023-04-06T12:08:32;13.70;99.90
8220;DHT22;4151;51.110;7.020;2023-04-06T12:10:58;13.90;99.90
8220;DHT22;4151;51.110;7.020;2023-04-06T12:13:24;14.10;99.90
8220;DHT22;4151;51.110;7.020;2023-04-06T12:15:50;14.40;99.90
8220;DHT22;4151;51.110;7.020;2023-04-06T12:18:16;14.30;99.90
8220;DHT22;4151;51.110;7.020;2023-04-06T12:20:41;14.40;99.90
8220;DHT22;4151;51.110;7.020;2023-04-06T12:23:07;14.50;98.80
8220;DHT22;4151;51.110;7.020;2023-04-06T12:25:32;14.60;99.90
8220;DHT22;4151;51.110;7.020;2023-04-06T12:27:58;14.20;98.70
8220;DHT22;4151;51.110;7.020;2023-04-06T12:30:24;14.00;99.90
8220;DHT22;4151;51.110;7.020;2023-04-06T12:32:50;14.30;99.90
8220;DHT22;4151;51.110;7.020;2023-04-06T12:35:16;14.70;99.90
8220;DHT22;4151;51.110;7.020;2023-04-06T12:37:41;14.90;99.90
8220;DHT22;4151;51.110;7.020;2023-04-06T12:40:07;14.80;99.90
8220;DHT22;4151;51.110;7.020;2023-04-06T12:42:36;14.70;99.90
8220;DHT22;4151;51.110;7.020;2023-04-06T12:45:01;14.50;99.90
8220;DHT22;4151;51.110;7.020;2023-04-06T12:47:27;14.40;99.90
8220;DHT22;4151;51.110;7.020;2023-04-06T12:49:53;14.30;99.90
8220;DHT22;4151;51.110;7.020;2023-04-06T12:52:20;14.30;99.90
8220;DHT22;4151;51.110;7.020;2023-04-06T12:54:46;14.20;99.90
8220;DHT22;4151;51.110;7.020;2023-04-06T12:57:12;14.10;99.90
8220;DHT22;4151;51.110;7.020;2023-04-06T12:59:38;14.10;99.90
8220;DHT22;4151;51.110;7.020;2023-04-06T13:02:03;13.80;99.90
8220;DHT22;4151;51.110;7.020;2023-04-06T13:04:30;13.50;99.90
8220;DHT22;4151;51.110;7.020;2023-04-06T13:06:55;13.20;99.90
8220;DHT22;4151;51.110;7.020;2023-04-06T13:09:21;13.30;99.90
8220;DHT22;4151;51.110;7.020;2023-04-06T13:11:46;13.00;99.90
8220;DHT22;4151;51.110;7.020;2023-04-06T13:14:12;13.10;99.90
8220;DHT22;4151;51.110;7.020;2023-04-06T13:16:38;13.40;99.90
8220;DHT22;4151;51.110;7.020;2023-04-06T13:19:03;13.30;99.90
8220;DHT22;4151;51.110;7.020;2023-04-06T13:21:29;13.30;99.90
8220;DHT22;4151;51.110;7.020;2023-04-06T13:23:55;13.30;99.90
8220;DHT22;4151;51.110;7.020;2023-04-06T13:26:21;13.20;99.90
8220;DHT22;4151;51.110;7.020;2023-04-06T13:28:46;13.30;99.90
8220;DHT22;4151;51.110;7.020;2023-04-06T13:31:12;13.40;99.90
8220;DHT22;4151;51.110;7.020;2023-04-06T13:33:38;13.20;99.90
8220;DHT22;4151;51.110;7.020;2023-04-06T13:36:06;13.10;99.90
8220;DHT22;4151;51.110;7.020;2023-04-06T13:38:32;13.10;99.90
8220;DHT22;4151;51.110;7.020;2023-04-06T13:40:59;13.00;99.90
8220;DHT22;4151;51.110;7.020;2023-04-06T13:43:25;13.00;99.90
8220;DHT22;4151;51.110;7.020;2023-04-06T13:45:53;13.10;99.90
8220;DHT22;4151;51.110;7.020;2023-04-06T13:48:20;13.00;99.90
8220;DHT22;4151;51.110;7.020;2023-04-06T13:50:46;12.90;99.90
8220;DHT22;4151;51.110;7.020;2023-04-06T13:53:12;12.90;99.90
8220;DHT22;4151;51.110;7.020;2023-04-06T13:55:37;12.90;99.90
8220;DHT22;4151;51.110;7.020;2023-04-06T13:58:03;12.60;99.90
8220;DHT22;4151;51.110;7.020;2023-04-06T14:00:29;12.50;99.90
8220;DHT22;4151;51.110;7.020;2023-04-06T14:02:54;12.60;99.90
8220;DHT22;4151;51.110;7.020;2023-04-06T14:05:23;12.70;99.90
8220;DHT22;4151;51.110;7.020;2023-04-06T14:07:49;12.30;99.90
8220;DHT22;4151;51.110;7.020;2023-04-06T14:10:15;12.20;99.90
8220;DHT22;4151;51.110;7.020;2023-04-06T14:12:42;12.10;99.90
8220;DHT22;4151;51.110;7.020;2023-04-06T14:15:10;12.00;99.90
8220;DHT22;4151;51.110;7.020;2023-04-06T14:17:36;11.90;99.90
8220;DHT22;4151;51.110;7.020;2023-04-06T14:20:02;11.70;99.90
8220;DHT22;4151;51.110;7.020;2023-04-06T14:22:27;11.50;99.90
8220;DHT22;4151;51.110;7.020;2023-04-06T14:24:53;11.40;99.90
8220;DHT22;4151;51.110;7.020;2023-04-06T14:27:18;11.20;99.90
8220;DHT22;4151;51.110;7.020;2023-04-06T14:29:44;11.30;99.90
8220;DHT22;4151;51.110;7.020;2023-04-06T14:32:09;11.30;99.90
8220;DHT22;4151;51.110;7.020;2023-04-06T14:34:38;11.40;99.90
8220;DHT22;4151;51.110;7.020;2023-04-06T14:37:04;11.30;99.90
8220;DHT22;4151;51.110;7.020;2023-04-06T14:39:29;11.20;99.90
8220;DHT22;4151;51.110;7.020;2023-04-06T14:41:55;11.10;99.90
8220;DHT22;4151;51.110;7.020;2023-04-06T14:44:21;11.00;99.90
8220;DHT22;4151;51.110;7.020;2023-04-06T14:46:46;11.00;99.90
8220;DHT22;4151;51.110;7.020;2023-04-06T14:49:12;10.90;99.90
8220;DHT22;4151;51.110;7.020;2023-04-06T15:01:00;10.80;99.90
8220;DHT22;4151;51.110;7.020;2023-04-06T15:03:26;10.60;99.90
8220;DHT22;4151;51.110;7.020;2023-04-06T15:05:52;10.60;99.90
8220;DHT22;4151;51.110;7.020;2023-04-06T15:08:18;10.50;99.90
8220;DHT22;4151;51.110;7.020;2023-04-06T15:10:46;10.50;99.90
8220;DHT22;4151;51.110;7.020;2023-04-06T15:13:12;10.40;99.90
8220;DHT22;4151;51.110;7.020;2023-04-06T15:15:38;10.30;99.90
8220;DHT22;4151;51.110;7.020;2023-04-06T15:18:04;10.20;99.90
8220;DHT22;4151;51.110;7.020;2023-04-06T15:20:30;10.10;99.90
8220;DHT22;4151;51.110;7.020;2023-04-06T15:22:56;10.00;99.90
8220;DHT22;4151;51.110;7.020;2023-04-06T15:25:22;9.80;99.90
8220;DHT22;4151;51.110;7.020;2023-04-06T15:27:47;9.60;99.90
8220;DHT22;4151;51.110;7.020;2023-04-06T15:30:13;9.50;99.90
8220;DHT22;4151;51.110;7.020;2023-04-06T15:32:39;9.30;99.90
8220;DHT22;4151;51.110;7.020;2023-04-06T15:35:11;9.30;99.90
8220;DHT22;4151;51.110;7.020;2023-04-06T15:37:37;9.20;99.90
8220;DHT22;4151;51.110;7.020;2023-04-06T15:40:04;9.20;99.90
8220;DHT22;4151;51.110;7.020;2023-04-06T15:42:29;9.10;99.90
8220;DHT22;4151;51.110;7.020;2023-04-06T15:44:55;9.00;99.90
8220;DHT22;4151;51.110;7.020;2023-04-06T15:47:20;8.90;99.90
8220;DHT22;4151;51.110;7.020;2023-04-06T15:49:46;8.80;99.90
8220;DHT22;4151;51.110;7.020;2023-04-06T15:52:12;8.70;99.90
8220;DHT22;4151;51.110;7.020;2023-04-06T15:54:37;8.60;99.90
8220;DHT22;4151;51.110;7.020;2023-04-06T15:57:06;8.60;99.90
8220;DHT22;4151;51.110;7.020;2023-04-06T15:59:32;8.60;99.90
8220;DHT22;4151;51.110;7.020;2023-04-06T16:01:57;8.50;99.90
8220;DHT22;4151;51.110;7.020;2023-04-06T16:04:24;8.40;99.90
8220;DHT22;4151;51.110;7.020;2023-04-06T16:06:50;8.40;99.90
8220;DHT22;4151;51.110;7.020;2023-04-06T16:09:16;8.30;99.90
8220;DHT22;4151;51.110;7.020;2023-04-06T16:11:41;8.30;99.90
8220;DHT22;4151;51.110;7.020;2023-04-06T16:14:07;8.20;99.90